Time;durP1;ratioP1;P1;durP2;ratioP2;P2;SDS_P1;SDS_P2;PMS_P1;PMS_P2;Temp;Humidity;BMP_temperature;BMP_pressure;BME280_temperature;BME280_humidity;BME280_pressure;Samples;Min_cycle;Max_cycle;Signal;HPM_P1;HPM_P2
2023/08/04 00:00:12;;;;;;;0.82;0.30;;;;;;;16.28;100.00;100626.28;5025936;28;20103;-50
2023/08/04 00:02:38;;;;;;;3.80;0.80;;;;;;;16.30;100.00;100632.22;5022429;28;20482;-52
2023/08/04 00:05:05;;;;;;;7.93;1.25;;;;;;;16.24;100.00;100636.63;5029059;28;20033;-49
2023/08/04 00:07:31;;;;;;;4.57;0.68;;;;;;;16.27;100.00;100643.38;5019777;28;20046;-49
2023/08/04 00:09:56;;;;;;;2.35;0.30;;;;;;;16.24;100.00;100641.16;5027607;28;20037;-47
2023/08/04 00:12:22;;;;;;;0.55;0.20;;;;;;;16.27;100.00;100644.19;5015388;28;20044;-49
2023/08/04 00:14:48;;;;;;;0.88;0.73;;;;;;;16.27;100.00;100638.84;5026395;28;20045;-48
2023/08/04 00:17:13;;;;;;;3.30;0.30;;;;;;;16.33;100.00;100640.63;5021942;28;20029;-49
2023/08/04 00:19:39;;;;;;;5.45;0.30;;;;;;;16.37;100.00;100638.31;5020773;28;20091;-51
2023/08/04 00:22:05;;;;;;;0.63;0.20;;;;;;;16.36;100.00;100634.81;5017793;28;20026;-47
2023/08/04 00:24:30;;;;;;;3.28;0.40;;;;;;;16.38;100.00;100636.47;5019780;28;20029;-50
2023/08/04 00:26:55;;;;;;;2.97;0.50;;;;;;;16.41;100.00;100627.97;5016313;28;20541;-50
2023/08/04 00:29:21;;;;;;;0.20;0.10;;;;;;;16.47;100.00;100632.41;5021143;28;20037;-50
2023/08/04 00:31:46;;;;;;;0.88;0.73;;;;;;;16.40;100.00;100635.19;5012745;28;20034;-48
2023/08/04 00:34:11;;;;;;;0.77;0.40;;;;;;;16.33;100.00;100637.94;5017266;28;20030;-45
2023/08/04 00:36:37;;;;;;;1.38;0.55;;;;;;;16.30;100.00;100637.56;5010085;28;20502;-49
2023/08/04 00:39:03;;;;;;;1.98;0.38;;;;;;;16.30;100.00;100640.25;5011006;28;20175;-46
2023/08/04 00:41:28;;;;;;;1.92;0.60;;;;;;;16.27;100.00;100638.84;5017843;28;20640;-48
2023/08/04 00:43:54;;;;;;;2.75;0.40;;;;;;;16.25;100.00;100645.47;5020820;28;20061;-48
2023/08/04 00:46:19;;;;;;;3.10;0.30;;;;;;;16.31;100.00;100642.69;5012620;28;20484;-48
2023/08/04 00:48:45;;;;;;;2.28;0.52;;;;;;;16.29;100.00;100644.78;5019250;28;20092;-49
2023/08/04 00:51:10;;;;;;;1.45;0.30;;;;;;;16.29;100.00;100644.78;5019439;28;20172;-51
2023/08/04 00:53:36;;;;;;;2.05;0.45;;;;;;;16.25;100.00;100648.13;5019777;28;20045;-46
2023/08/04 00:56:01;;;;;;;0.63;0.13;;;;;;;16.24;100.00;100657.22;5016346;28;20556;-50
2023/08/04 00:58:27;;;;;;;2.00;0.50;;;;;;;16.26;100.00;100649.75;5017665;28;20438;-45
2023/08/04 01:00:53;;;;;;;0.77;0.45;;;;;;;16.26;100.00;100655.94;5016079;28;20065;-49
2023/08/04 01:03:18;;;;;;;0.98;0.43;;;;;;;16.25;100.00;100651.63;5018772;28;20032;-47
2023/08/04 01:06:13;;;;;;;2.83;1.15;;;;;;;16.24;100.00;100659.88;5012835;28;20076;-48
2023/08/04 01:08:48;;;;;;;0.45;0.28;;;;;;;16.20;100.00;100664.03;5015958;28;20048;-45
2023/08/04 01:11:19;;;;;;;0.90;0.40;;;;;;;16.23;100.00;100664.41;5018479;28;20041;-51
2023/08/04 01:13:44;;;;;;;2.13;0.85;;;;;;;16.23;100.00;100664.41;5022342;28;20539;-44
2023/08/04 01:16:10;;;;;;;1.55;0.75;;;;;;;16.19;100.00;100662.41;5011772;28;20316;-48
2023/08/04 01:18:35;;;;;;;3.80;1.08;;;;;;;16.17;100.00;100662.63;5016803;28;20034;-46
2023/08/04 01:21:04;;;;;;;3.88;0.43;;;;;;;16.14;100.00;100666.56;5018958;28;20033;-50
2023/08/04 01:23:30;;;;;;;3.85;0.52;;;;;;;16.12;100.00;100665.16;5021470;28;20191;-48
2023/08/04 01:25:56;;;;;;;3.80;1.08;;;;;;;16.07;100.00;100665.81;5018976;28;20083;-47
2023/08/04 01:28:23;;;;;;;1.13;0.47;;;;;;;16.11;100.00;100674.22;5014915;28;20030;-48
2023/08/04 01:30:52;;;;;;;2.45;0.60;;;;;;;16.10;100.00;100672.56;5013570;28;20040;-49
2023/08/04 01:33:17;;;;;;;6.03;0.68;;;;;;;16.08;100.00;100680.00;5013750;28;20464;-47
2023/08/04 01:35:43;;;;;;;3.97;1.05;;;;;;;16.12;100.00;100675.84;5013820;28;20037;-47
2023/08/04 01:38:09;;;;;;;6.22;1.75;;;;;;;16.12;100.00;100675.84;5012584;28;20037;-49
2023/08/04 01:40:35;;;;;;;3.63;0.85;;;;;;;16.10;100.00;100678.75;5020731;28;20414;-47
2023/08/04 01:43:00;;;;;;;2.58;0.50;;;;;;;16.14;100.00;100674.59;5020269;28;20037;-50
2023/08/04 01:45:25;;;;;;;1.13;0.38;;;;;;;16.10;100.00;100675.25;5018319;28;20025;-46
2023/08/04 01:47:52;;;;;;;0.98;0.73;;;;;;;16.15;100.00;100675.41;5016627;28;20041;-47
2023/08/04 01:50:17;;;;;;;1.25;0.60;;;;;;;16.15;100.00;100680.75;5016407;28;20116;-45
2023/08/04 01:52:43;;;;;;;10.07;1.27;;;;;;;16.13;100.00;100682.81;5011260;28;20104;-45
2023/08/04 01:55:08;;;;;;;2.35;0.55;;;;;;;16.05;100.00;100681.25;5011518;28;20066;-48
2023/08/04 01:57:34;;;;;;;2.63;0.40;;;;;;;16.04;100.00;100684.19;5017268;28;20034;-50
2023/08/04 01:59:59;;;;;;;1.25;0.40;;;;;;;15.99;100.00;100681.34;5014254;28;20029;-48
2023/08/04 02:02:24;;;;;;;2.50;0.85;;;;;;;15.91;100.00;100679.78;5016833;28;20097;-49
2023/08/04 02:04:50;;;;;;;4.70;0.20;;;;;;;15.90;100.00;100684.31;5021919;28;20458;-52
2023/08/04 02:07:15;;;;;;;1.10;0.28;;;;;;;15.85;100.00;100691.34;5019611;28;20498;-51
2023/08/04 02:09:42;;;;;;;2.08;0.20;;;;;;;15.85;100.00;100697.53;5018183;28;20038;-49
2023/08/04 02:12:08;;;;;;;4.57;0.40;;;;;;;15.81;100.00;100701.66;5020784;28;20518;-47
2023/08/04 02:14:33;;;;;;;3.33;1.25;;;;;;;15.84;100.00;100701.22;5011388;28;20098;-49
2023/08/04 02:16:59;;;;;;;1.55;0.75;;;;;;;15.86;100.00;100704.50;5018924;28;20033;-45
2023/08/04 02:19:24;;;;;;;1.85;0.70;;;;;;;15.77;100.00;100700.47;5007247;28;20038;-47
2023/08/04 02:21:50;;;;;;;1.42;0.75;;;;;;;15.79;100.00;100703.75;5015087;28;20037;-49
2023/08/04 02:24:15;;;;;;;0.90;0.30;;;;;;;15.88;100.00;100706.97;5018141;28;20479;-46
2023/08/04 02:26:41;;;;;;;3.00;0.35;;;;;;;15.86;100.00;100706.38;5018430;28;20037;-50
2023/08/04 02:29:06;;;;;;;2.28;0.80;;;;;;;15.85;100.00;100718.06;5017221;28;20029;-48
2023/08/04 02:31:32;;;;;;;2.38;0.60;;;;;;;15.92;100.00;100708.97;5006909;28;20026;-48
2023/08/04 02:33:58;;;;;;;4.22;0.85;;;;;;;15.97;100.00;100710.97;5015016;28;20422;-51
2023/08/04 02:36:24;;;;;;;2.55;0.25;;;;;;;16.00;100.00;100712.38;5016729;28;20506;-46
2023/08/04 02:38:50;;;;;;;2.40;0.40;;;;;;;16.01;100.00;100712.19;5016850;28;20042;-52
2023/08/04 02:41:15;;;;;;;5.07;0.75;;;;;;;16.04;100.00;100711.72;5011622;28;20036;-48
2023/08/04 02:43:40;;;;;;;3.35;0.65;;;;;;;16.05;100.00;100716.03;5019498;28;20030;-51
2023/08/04 02:46:07;;;;;;;1.55;0.60;;;;;;;16.11;100.00;100719.69;5012728;28;20025;-52
2023/08/04 02:48:33;;;;;;;4.50;0.63;;;;;;;16.10;100.00;100720.72;5015131;28;20122;-49
2023/08/04 02:51:04;;;;;;;1.70;0.77;;;;;;;16.09;100.00;100722.59;5015453;28;20033;-47
2023/08/04 02:53:31;;;;;;;0.75;0.38;;;;;;;16.10;100.00;100718.84;5016857;28;20057;-49
2023/08/04 02:55:57;;;;;;;1.30;0.28;;;;;;;16.12;100.00;100719.47;5016217;28;20025;-49
2023/08/04 02:58:23;;;;;;;4.78;1.75;;;;;;;16.08;100.00;100725.47;5016113;28;20562;-47
2023/08/04 03:00:49;;;;;;;4.40;1.23;;;;;;;16.05;100.00;100717.91;5019740;28;20099;-47
2023/08/04 03:03:15;;;;;;;3.85;1.25;;;;;;;16.12;100.00;100724.00;5013260;28;20471;-49
2023/08/04 03:05:40;;;;;;;2.45;0.57;;;;;;;16.10;100.00;100715.38;5009256;28;20085;-53
2023/08/04 03:08:06;;;;;;;1.23;0.88;;;;;;;16.03;100.00;100728.00;5016047;28;20030;-50
2023/08/04 03:10:31;;;;;;;2.75;2.03;;;;;;;15.96;100.00;100727.25;5018713;28;20474;-49
2023/08/04 03:12:56;;;;;;;1.33;0.60;;;;;;;15.91;100.00;100734.06;5015233;28;20104;-53
2023/08/04 03:15:22;;;;;;;9.30;1.05;;;;;;;15.98;100.00;100733.19;5015612;28;20038;-49
2023/08/04 03:17:47;;;;;;;2.63;0.90;;;;;;;15.95;100.00;100738.97;5012987;28;20029;-47
2023/08/04 03:20:12;;;;;;;6.90;0.95;;;;;;;16.00;100.00;100736.47;5018308;28;20029;-48
2023/08/04 03:22:38;;;;;;;4.47;2.13;;;;;;;16.04;100.00;100735.00;5015730;28;20025;-52
2023/08/04 03:25:04;;;;;;;4.97;1.30;;;;;;;16.01;100.00;100735.44;5014671;28;20047;-49
2023/08/04 03:27:29;;;;;;;1.30;1.20;;;;;;;15.97;100.00;100737.72;5009276;28;20041;-46
2023/08/04 03:29:54;;;;;;;2.72;1.30;;;;;;;15.97;100.00;100742.25;5016184;28;20037;-50
2023/08/04 03:32:20;;;;;;;4.10;0.98;;;;;;;15.97;100.00;100744.94;5015636;28;20113;-49
2023/08/04 03:34:45;;;;;;;5.40;1.35;;;;;;;15.96;100.00;100746.78;5015758;28;20140;-47
2023/08/04 03:37:10;;;;;;;4.95;0.90;;;;;;;15.96;100.00;100743.31;5019884;28;20032;-47
2023/08/04 03:39:35;;;;;;;4.93;1.13;;;;;;;16.08;100.00;100747.72;5014976;28;20394;-45
2023/08/04 03:42:01;;;;;;;3.10;1.27;;;;;;;16.00;100.00;100742.63;5011749;28;20091;-46
2023/08/04 03:44:26;;;;;;;7.75;2.38;;;;;;;15.96;100.00;100737.97;5015116;28;20030;-49
2023/08/04 03:46:51;;;;;;;2.22;1.48;;;;;;;15.97;100.00;100744.94;5016699;28;20509;-48
2023/08/04 03:49:17;;;;;;;4.38;1.05;;;;;;;15.85;100.00;100744.81;5014570;28;20112;-49
2023/08/04 03:51:42;;;;;;;1.50;1.33;;;;;;;15.78;100.00;100746.75;5019978;28;20036;-49
2023/08/04 03:54:07;;;;;;;4.90;1.67;;;;;;;15.68;100.00;100748.00;5013120;28;20044;-47
2023/08/04 03:56:33;;;;;;;6.32;1.42;;;;;;;15.60;100.00;100742.94;5012973;28;20522;-52
2023/08/04 03:58:58;;;;;;;11.55;1.50;;;;;;;15.48;100.00;100747.34;5015965;28;20025;-51
2023/08/04 04:01:23;;;;;;;2.22;0.80;;;;;;;15.41;100.00;100755.44;5009939;28;20055;-49
2023/08/04 04:03:49;;;;;;;7.05;1.27;;;;;;;15.30;100.00;100757.97;5027176;28;20033;-46
2023/08/04 04:06:16;;;;;;;7.30;1.20;;;;;;;15.22;100.00;100761.69;5018200;28;20056;-50
2023/08/04 04:08:41;;;;;;;7.35;1.55;;;;;;;15.22;100.00;100769.72;5019566;28;20044;-49
2023/08/04 04:11:07;;;;;;;1.85;0.90;;;;;;;15.26;100.00;100769.09;5016449;28;20053;-46
2023/08/04 04:13:32;;;;;;;3.25;1.15;;;;;;;15.21;100.00;100770.75;5017522;28;20371;-47
2023/08/04 04:15:57;;;;;;;2.72;1.17;;;;;;;15.15;100.00;100772.41;5020388;28;20108;-50
2023/08/04 04:18:23;;;;;;;3.17;0.90;;;;;;;15.13;100.00;100776.34;5016915;28;20026;-49
2023/08/04 04:20:48;;;;;;;3.55;1.83;;;;;;;15.13;100.00;100776.34;5016180;28;20029;-49
2023/08/04 04:23:13;;;;;;;4.05;0.98;;;;;;;15.11;100.00;100781.09;5019406;28;20122;-46
2023/08/04 04:25:39;;;;;;;4.10;1.13;;;;;;;15.14;100.00;100789.47;5016931;28;20048;-50
2023/08/04 04:28:04;;;;;;;3.42;1.27;;;;;;;15.15;100.00;100792.97;5019358;28;20035;-51
2023/08/04 04:30:30;;;;;;;6.43;1.58;;;;;;;15.22;100.00;100789.22;5020783;28;20502;-49
2023/08/04 04:32:55;;;;;;;3.05;2.42;;;;;;;15.23;100.00;100790.03;5020927;28;20025;-48
2023/08/04 04:35:20;;;;;;;3.45;0.55;;;;;;;15.26;100.00;100793.13;5020317;28;20832;-49
2023/08/04 04:37:45;;;;;;;3.42;1.88;;;;;;;15.32;100.00;100799.44;5022190;28;20133;-47
2023/08/04 04:40:11;;;;;;;5.18;0.93;;;;;;;15.47;100.00;100801.84;5016281;28;20026;-48
2023/08/04 04:42:36;;;;;;;5.57;0.95;;;;;;;15.53;100.00;100797.47;5017774;28;20040;-48
2023/08/04 04:45:02;;;;;;;5.93;1.42;;;;;;;15.63;100.00;100803.16;5020772;28;20088;-48
2023/08/04 04:47:27;;;;;;;2.92;1.00;;;;;;;15.62;100.00;100793.53;5022605;28;20032;-47
2023/08/04 04:49:53;;;;;;;1.13;1.02;;;;;;;15.57;100.00;100804.03;5019797;28;20124;-47
2023/08/04 04:52:30;;;;;;;7.40;1.15;;;;;;;15.57;100.00;100796.03;5019543;28;20067;-46
2023/08/04 04:54:55;;;;;;;4.32;2.33;;;;;;;15.57;100.00;100796.84;5018737;28;20041;-50
2023/08/04 04:57:21;;;;;;;8.80;1.25;;;;;;;15.59;100.00;100799.28;5017114;28;20501;-49
2023/08/04 04:59:46;;;;;;;2.05;0.80;;;;;;;15.51;100.00;100797.69;5015213;28;20359;-48
2023/08/04 05:02:12;;;;;;;1.67;0.60;;;;;;;15.53;100.00;100800.97;5018756;28;20363;-51
2023/08/04 05:04:37;;;;;;;6.78;1.25;;;;;;;15.54;100.00;100807.97;5022467;28;20592;-50
2023/08/04 05:07:04;;;;;;;2.25;0.95;;;;;;;15.47;100.00;100805.31;5019438;28;20057;-49
2023/08/04 05:09:30;;;;;;;4.13;1.15;;;;;;;15.42;100.00;100815.84;5020378;28;20367;-47
2023/08/04 05:11:55;;;;;;;2.20;1.05;;;;;;;15.48;100.00;100814.16;5020622;28;20437;-48
2023/08/04 05:14:20;;;;;;;3.08;1.08;;;;;;;15.45;100.00;100812.72;5012792;28;20077;-50
2023/08/04 05:16:46;;;;;;;3.72;1.25;;;;;;;15.39;100.00;100810.94;5017199;28;20053;-49
2023/08/04 05:19:11;;;;;;;4.07;0.93;;;;;;;15.34;100.00;100818.75;5018870;28;20619;-48
2023/08/04 05:21:36;;;;;;;2.50;1.30;;;;;;;15.34;100.00;100816.09;5016457;28;20155;-50
2023/08/04 05:24:02;;;;;;;2.97;0.65;;;;;;;15.33;100.00;100827.78;5010860;28;20108;-48
2023/08/04 05:26:27;;;;;;;2.67;1.08;;;;;;;15.37;100.00;100825.53;5014974;28;20033;-47
2023/08/04 05:28:52;;;;;;;4.57;0.88;;;;;;;15.36;100.00;100832.75;5016120;28;20017;-48
2023/08/04 05:31:18;;;;;;;2.55;0.88;;;;;;;15.42;100.00;100831.06;5020051;28;20152;-47
2023/08/04 05:33:43;;;;;;;3.60;0.80;;;;;;;15.43;100.00;100833.50;5016548;28;20033;-47
2023/08/04 05:36:09;;;;;;;2.97;1.13;;;;;;;15.44;100.00;100837.81;5018482;28;20039;-51
2023/08/04 05:38:34;;;;;;;6.00;1.13;;;;;;;15.47;100.00;100837.38;5012369;28;20037;-51
2023/08/04 05:41:01;;;;;;;2.90;2.03;;;;;;;15.52;100.00;100843.97;5016834;28;20060;-50
2023/08/04 05:43:27;;;;;;;9.65;0.75;;;;;;;15.54;100.00;100844.53;5010782;28;20029;-49
2023/08/04 05:45:52;;;;;;;2.17;0.75;;;;;;;15.67;100.00;100855.16;5002952;28;20021;-51
2023/08/04 05:48:17;;;;;;;5.93;1.98;;;;;;;15.68;100.00;100854.94;5008409;28;20033;-47
2023/08/04 05:50:43;;;;;;;2.65;1.25;;;;;;;15.74;100.00;100850.59;5011307;28;20433;-50
2023/08/04 05:53:09;;;;;;;3.88;1.00;;;;;;;15.77;100.00;100860.88;5008061;28;20037;-46
2023/08/04 05:55:36;;;;;;;2.50;1.13;;;;;;;15.82;100.00;100858.38;5018462;28;20045;-49
2023/08/04 05:58:01;;;;;;;2.58;0.95;;;;;;;15.92;100.00;100861.38;5015951;28;20663;-48
2023/08/04 06:00:26;;;;;;;0.73;0.40;;;;;;;15.94;100.00;100861.16;5016084;28;20069;-46
2023/08/04 06:02:52;;;;;;;7.03;1.13;;;;;;;16.05;100.00;100873.84;5019265;28;20037;-49
2023/08/04 06:05:17;;;;;;;3.05;0.57;;;;;;;16.11;100.00;100877.53;5017307;28;20128;-47
2023/08/04 06:07:43;;;;;;;5.80;1.30;;;;;;;16.13;100.00;100876.25;5016417;28;20028;-47
2023/08/04 06:10:08;;;;;;;3.80;1.38;;;;;;;16.26;100.00;100874.50;5020402;28;20030;-49
2023/08/04 06:12:34;;;;;;;1.48;1.02;;;;;;;16.27;100.00;100885.00;5013432;28;20033;-47
2023/08/04 06:15:00;;;;;;;2.22;0.77;;;;;;;16.23;100.00;100885.63;5015990;28;20037;-48
2023/08/04 06:17:25;;;;;;;5.60;0.60;;;;;;;16.26;100.00;100894.06;5020641;28;20111;-48
2023/08/04 06:19:51;;;;;;;2.22;1.20;;;;;;;16.38;100.00;100909.41;5019498;28;20033;-50
2023/08/04 06:22:17;;;;;;;4.55;2.03;;;;;;;16.48;100.00;100899.84;5011066;28;20021;-48
2023/08/04 06:24:42;;;;;;;2.05;0.80;;;;;;;16.66;100.00;100909.75;5016873;28;20319;-46
2023/08/04 06:27:08;;;;;;;5.68;1.20;;;;;;;16.77;100.00;100906.38;5012060;28;20534;-49
2023/08/04 06:29:36;;;;;;;2.72;0.98;;;;;;;16.93;100.00;100901.47;5014820;28;20038;-46
2023/08/04 06:32:02;;;;;;;2.28;0.93;;;;;;;16.93;100.00;100909.50;5012757;28;20049;-44
2023/08/04 06:34:27;;;;;;;4.47;1.20;;;;;;;17.06;100.00;100911.22;5010916;28;20029;-48
2023/08/04 06:36:53;;;;;;;3.33;0.63;;;;;;;17.24;100.00;100908.53;5016106;28;20026;-48
2023/08/04 06:39:18;;;;;;;5.22;1.25;;;;;;;17.34;100.00;100916.88;5014161;28;20030;-46
2023/08/04 06:41:43;;;;;;;2.63;1.05;;;;;;;17.29;100.00;100908.69;5015493;28;20025;-48
2023/08/04 06:44:09;;;;;;;1.48;0.50;;;;;;;17.18;100.00;100923.66;5008598;28;20120;-45
2023/08/04 06:46:34;;;;;;;8.30;0.93;;;;;;;17.11;100.00;100930.13;5012378;28;20033;-47
2023/08/04 06:48:59;;;;;;;2.60;0.90;;;;;;;16.97;100.00;100924.09;5014054;28;20193;-48
2023/08/04 06:51:25;;;;;;;2.17;1.10;;;;;;;17.02;100.00;100926.13;5021425;28;20030;-49
2023/08/04 06:53:50;;;;;;;1.67;0.63;;;;;;;17.12;100.00;100929.91;5008882;28;20418;-50
2023/08/04 06:56:15;;;;;;;4.43;1.00;;;;;;;17.25;100.00;100937.00;5015295;28;20435;-48
2023/08/04 06:58:41;;;;;;;7.68;2.65;;;;;;;17.33;100.00;100938.56;5014405;28;20037;-48
2023/08/04 07:01:06;;;;;;;5.07;1.30;;;;;;;17.37;100.00;100934.34;5017551;28;20172;-47
2023/08/04 07:03:32;;;;;;;4.13;0.40;;;;;;;17.35;100.00;100939.97;5018844;28;20471;-48
2023/08/04 07:05:57;;;;;;;4.18;0.63;;;;;;;17.43;100.00;100941.53;5019311;28;20501;-44
2023/08/04 07:08:22;;;;;;;2.55;0.60;;;;;;;17.50;100.00;100944.91;5012462;28;20436;-48
2023/08/04 07:10:48;;;;;;;6.15;1.95;;;;;;;17.49;100.00;100937.13;5024176;28;20040;-45
2023/08/04 07:13:13;;;;;;;2.33;0.43;;;;;;;17.50;100.00;100942.22;5017847;28;20036;-49
2023/08/04 07:15:38;;;;;;;1.95;0.90;;;;;;;17.63;100.00;100933.19;5015489;28;20053;-48
2023/08/04 07:18:03;;;;;;;8.63;0.82;;;;;;;17.72;100.00;100941.75;5008849;28;20483;-46
2023/08/04 07:20:31;;;;;;;0.85;0.47;;;;;;;17.73;100.00;100935.34;5017125;28;20041;-47
2023/08/04 07:22:57;;;;;;;3.75;0.85;;;;;;;17.76;100.00;100937.56;5003880;28;20040;-45
2023/08/04 07:25:22;;;;;;;0.63;0.40;;;;;;;17.79;100.00;100940.66;5016290;28;20671;-52
2023/08/04 07:27:48;;;;;;;5.82;0.90;;;;;;;17.90;100.00;100944.44;5016684;28;20076;-50
2023/08/04 07:30:13;;;;;;;2.80;0.63;;;;;;;18.00;100.00;100944.69;5016767;28;20417;-48
2023/08/04 07:32:39;;;;;;;1.80;0.55;;;;;;;17.92;100.00;100941.53;5021690;28;20471;-48
2023/08/04 07:35:04;;;;;;;2.55;0.65;;;;;;;17.96;100.00;100940.81;5010591;28;20029;-48
2023/08/04 07:37:30;;;;;;;8.60;1.73;;;;;;;18.11;100.00;100939.59;5019045;28;20071;-46
2023/08/04 07:39:55;;;;;;;3.58;0.77;;;;;;;18.42;100.00;100941.97;5021774;28;20033;-46
2023/08/04 07:42:20;;;;;;;1.52;0.77;;;;;;;18.65;100.00;100941.19;5022082;28;20116;-47
2023/08/04 07:44:46;;;;;;;3.20;1.40;;;;;;;18.49;100.00;100941.88;5014226;28;20793;-48
2023/08/04 07:47:11;;;;;;;4.05;1.30;;;;;;;18.37;100.00;100949.91;5019200;28;20025;-46
2023/08/04 07:49:36;;;;;;;3.95;0.90;;;;;;;18.22;100.00;100941.47;5019714;28;20033;-49
2023/08/04 07:52:02;;;;;;;1.55;0.52;;;;;;;18.25;100.00;100944.53;5009811;28;20088;-48
2023/08/04 07:54:27;;;;;;;2.80;0.38;;;;;;;18.16;100.00;100947.78;5021198;28;20149;-46
2023/08/04 07:56:52;;;;;;;8.63;1.92;;;;;;;18.24;100.00;100947.44;5009784;28;20052;-45
2023/08/04 07:59:18;;;;;;;3.75;0.80;;;;;;;18.37;100.00;100949.09;5018098;28;20029;-49
2023/08/04 08:01:43;;;;;;;2.67;0.30;;;;;;;18.45;100.00;100954.94;5025189;28;20073;-45
2023/08/04 08:04:08;;;;;;;6.78;0.50;;;;;;;18.36;100.00;100948.28;5011531;28;20700;-48
2023/08/04 08:06:36;;;;;;;2.13;0.40;;;;;;;18.46;100.00;100948.53;5008288;28;20539;-46
2023/08/04 08:09:01;;;;;;;1.35;0.45;;;;;;;18.40;100.00;100949.44;5017583;28;20075;-46
2023/08/04 08:11:26;;;;;;;2.78;0.25;;;;;;;18.32;100.00;100949.78;5013133;28;20407;-44
2023/08/04 08:13:52;;;;;;;3.20;0.40;;;;;;;18.64;100.00;100950.28;5012928;28;20050;-50
2023/08/04 08:16:19;;;;;;;0.70;0.63;;;;;;;18.80;100.00;100938.06;5011041;28;20041;-48
2023/08/04 08:18:45;;;;;;;1.92;0.50;;;;;;;18.90;100.00;100943.66;5011957;28;20163;-47
2023/08/04 08:21:11;;;;;;;1.75;0.40;;;;;;;19.07;100.00;100959.88;5025024;28;20049;-51
2023/08/04 08:23:36;;;;;;;0.80;0.10;;;;;;;19.10;100.00;100955.91;5014776;28;20041;-47
2023/08/04 08:26:03;;;;;;;1.95;0.10;;;;;;;18.88;100.00;100951.13;5008513;28;20034;-47
2023/08/04 08:28:28;;;;;;;0.63;0.30;;;;;;;19.01;100.00;100960.81;5007076;28;20462;-48
2023/08/04 08:30:54;;;;;;;1.13;0.20;;;;;;;19.06;100.00;100968.19;5003438;28;20124;-49
2023/08/04 08:33:20;;;;;;;2.28;0.10;;;;;;;19.11;100.00;100965.59;5003529;28;20155;-52
2023/08/04 08:35:45;;;;;;;2.05;0.10;;;;;;;19.18;100.00;100963.63;5001840;28;20034;-48
2023/08/04 08:38:11;;;;;;;4.63;0.20;;;;;;;19.39;100.00;100968.34;5007911;28;20029;-47
2023/08/04 08:40:36;;;;;;;1.48;0.45;;;;;;;19.30;100.00;100975.16;5010613;28;20068;-48
2023/08/04 08:43:01;;;;;;;2.33;0.38;;;;;;;19.17;100.00;100970.84;5005940;28;20037;-47
2023/08/04 08:45:28;;;;;;;1.48;0.20;;;;;;;19.33;100.00;100974.66;5009101;28;20029;-47
2023/08/04 08:47:55;;;;;;;0.47;0.38;;;;;;;19.44;100.00;100975.72;5007253;28;20635;-52
2023/08/04 08:50:23;;;;;;;4.13;0.20;;;;;;;19.53;100.00;100978.84;5006031;28;20068;-45
2023/08/04 08:53:14;;;;;;;1.98;0.57;;;;;;;19.45;100.00;100982.72;5009202;28;20037;-47
2023/08/04 08:55:44;;;;;;;1.52;0.20;;;;;;;19.48;100.00;100990.31;5004775;28;20395;-50
2023/08/04 08:58:11;;;;;;;3.40;0.75;;;;;;;19.49;100.00;100994.66;5000246;28;20526;-51
2023/08/04 09:00:36;;;;;;;0.70;0.35;;;;;;;19.38;100.00;101000.84;5011190;28;20033;-48
2023/08/04 09:03:05;;;;;;;2.08;0.17;;;;;;;19.65;100.00;100995.78;5007413;28;20046;-51
2023/08/04 09:05:32;;;;;;;1.20;0.17;;;;;;;19.61;100.00;101000.78;5009366;28;20049;-46
2023/08/04 09:07:57;;;;;;;1.52;0.17;;;;;;;19.51;100.00;101000.59;5003532;28;20037;-50
2023/08/04 09:10:23;;;;;;;1.60;0.32;;;;;;;19.66;100.00;101008.16;5006729;28;20076;-53
2023/08/04 09:12:54;;;;;;;1.38;0.08;;;;;;;19.70;100.00;101008.53;5009430;28;20060;-50
2023/08/04 09:15:31;;;;;;;3.20;0.32;;;;;;;19.63;100.00;101015.91;5009764;28;20058;-47
2023/08/04 09:17:57;;;;;;;0.47;0.17;;;;;;;19.64;100.00;101006.75;5009436;28;20063;-46
2023/08/04 09:20:28;;;;;;;0.52;0.20;;;;;;;19.66;100.00;101008.16;5007951;28;20393;-47
2023/08/04 09:22:53;;;;;;;0.30;0.15;;;;;;;19.86;100.00;101009.66;5009194;28;20491;-48
2023/08/04 09:25:19;;;;;;;2.08;0.65;;;;;;;19.84;100.00;101012.56;5010127;28;20052;-48
2023/08/04 09:27:49;;;;;;;0.70;0.00;;;;;;;19.63;100.00;101007.81;5009267;28;20037;-54
2023/08/04 09:30:16;;;;;;;2.28;0.10;;;;;;;19.81;100.00;101013.88;5012644;28;20037;-51
2023/08/04 09:32:46;;;;;;;2.00;0.10;;;;;;;19.61;100.00;101008.06;5015576;28;20030;-48
2023/08/04 09:35:13;;;;;;;1.20;0.00;;;;;;;19.60;100.00;101018.00;5012886;28;20037;-50
2023/08/04 09:37:39;;;;;;;3.45;0.88;;;;;;;19.66;100.00;101018.91;5015488;28;20286;-51
2023/08/04 09:40:16;;;;;;;0.63;0.10;;;;;;;19.66;100.00;101023.47;5014706;28;20045;-44
2023/08/04 09:42:42;;;;;;;1.67;0.03;;;;;;;19.70;100.00;101022.00;5015164;28;20588;-49
2023/08/04 09:45:12;;;;;;;1.80;0.10;;;;;;;19.70;100.00;101027.38;5015951;28;20037;-48
2023/08/04 09:47:37;;;;;;;1.60;0.10;;;;;;;19.75;100.00;101024.78;5010445;28;20040;-49
2023/08/04 09:50:09;;;;;;;0.38;0.03;;;;;;;19.72;100.00;101023.38;5027095;28;20029;-45
2023/08/04 09:52:35;;;;;;;2.70;0.60;;;;;;;19.83;100.00;101016.34;5015734;28;20083;-47
2023/08/04 09:55:00;;;;;;;3.50;0.40;;;;;;;19.79;100.00;101024.03;5014661;28;20438;-46
2023/08/04 09:57:25;;;;;;;1.63;0.17;;;;;;;19.75;100.00;101025.59;5015826;28;20061;-45
2023/08/04 09:59:52;;;;;;;4.18;0.77;;;;;;;19.74;100.00;101015.88;5016781;28;20037;-47
2023/08/04 10:02:18;;;;;;;3.50;0.20;;;;;;;20.32;100.00;101016.69;5009569;28;20049;-46
2023/08/04 10:04:50;;;;;;;3.20;0.10;;;;;;;20.61;100.00;101025.56;5013456;28;20486;-46
2023/08/04 10:07:20;;;;;;;3.35;0.38;;;;;;;20.90;100.00;101020.06;5011993;28;20506;-49
2023/08/04 10:09:48;;;;;;;0.40;0.05;;;;;;;20.72;100.00;101012.25;5015295;28;20498;-50
2023/08/04 10:12:16;;;;;;;0.88;0.10;;;;;;;20.56;100.00;101028.16;5007656;28;20037;-48
2023/08/04 10:14:42;;;;;;;2.10;0.30;;;;;;;20.94;100.00;101017.72;5012892;28;20498;-48
2023/08/04 10:17:08;;;;;;;1.13;0.25;;;;;;;20.73;100.00;101019.25;5012135;28;20029;-45
2023/08/04 10:19:35;;;;;;;1.30;0.30;;;;;;;20.80;100.00;101019.91;5010780;28;20482;-48
2023/08/04 10:22:05;;;;;;;1.27;0.45;;;;;;;20.99;100.00;101021.31;5011449;28;20462;-45
2023/08/04 10:24:34;;;;;;;0.50;0.43;;;;;;;21.20;100.00;101019.72;5012647;28;20037;-48
2023/08/04 10:26:59;;;;;;;3.75;0.10;;;;;;;21.31;100.00;101017.97;5011324;28;20037;-45
2023/08/04 10:29:34;;;;;;;0.65;0.38;;;;;;;21.19;100.00;101015.38;5010710;28;20032;-46
2023/08/04 10:32:01;;;;;;;0.85;0.30;;;;;;;21.23;100.00;101023.78;5012907;28;20155;-44
2023/08/04 10:34:29;;;;;;;2.63;0.57;;;;;;;21.28;100.00;101021.16;5007727;28;20037;-48
2023/08/04 10:37:01;;;;;;;7.40;0.47;;;;;;;21.28;100.00;101013.06;5010863;28;20394;-47
2023/08/04 10:39:43;;;;;;;1.35;0.63;;;;;;;21.02;100.00;101018.09;5011524;28;20056;-50
2023/08/04 10:42:11;;;;;;;1.35;0.30;;;;;;;20.81;100.00;101016.19;5012680;28;20048;-50
2023/08/04 10:44:49;;;;;;;1.70;0.63;;;;;;;20.74;100.00;101018.22;5013546;28;20083;-48
2023/08/04 10:47:27;;;;;;;0.40;0.20;;;;;;;20.98;100.00;101016.97;5013832;28;20037;-53
2023/08/04 10:49:52;;;;;;;2.55;0.43;;;;;;;21.11;100.00;101024.69;5012875;28;20030;-48
2023/08/04 10:52:18;;;;;;;3.35;0.70;;;;;;;21.35;100.00;101025.31;5013815;28;20025;-44
2023/08/04 10:54:44;;;;;;;4.45;0.60;;;;;;;21.33;100.00;101024.75;5014475;28;20033;-47
2023/08/04 10:57:18;;;;;;;6.55;0.15;;;;;;;21.00;100.00;101019.41;5011408;28;20033;-47
2023/08/04 10:59:43;;;;;;;3.40;0.55;;;;;;;20.88;100.00;101023.03;5007470;28;20036;-48
2023/08/04 11:02:09;;;;;;;2.95;0.20;;;;;;;21.18;100.00;101027.22;5010564;28;20204;-45
2023/08/04 11:04:37;;;;;;;1.17;0.10;;;;;;;21.46;100.00;101025.47;5009076;28;20048;-53
2023/08/04 11:07:03;;;;;;;1.13;0.47;;;;;;;21.94;100.00;101030.09;5007258;28;21139;-48
2023/08/04 11:09:28;;;;;;;0.73;0.22;;;;;;;21.71;100.00;101035.75;5008723;28;20079;-45
2023/08/04 11:11:54;;;;;;;2.90;0.57;;;;;;;21.84;100.00;101034.56;5011514;28;20029;-47